Time;durP1;ratioP1;P1;durP2;ratioP2;P2;SDS_P1;SDS_P2;PMS_P1;PMS_P2;Temp;Humidity;BMP_temperature;BMP_pressure;BME280_temperature;BME280_humidity;BME280_pressure;Samples;Min_cycle;Max_cycle;Signal;HPM_P1;HPM_P2
2022/10/17 00:01:26;;;;;;;13.93;4.60;;;12.60;99.90;;;;;;4213355;28;20055;-87
2022/10/17 00:03:26;;;;;;;7.82;3.13;;;11.70;99.90;;;;;;4231872;28;20036;-87
2022/10/17 00:05:28;;;;;;;9.05;3.47;;;12.60;99.90;;;;;;4231529;28;20093;-87
2022/10/17 00:07:29;;;;;;;9.88;3.60;;;12.50;99.90;;;;;;4231445;28;20482;-87
2022/10/17 00:09:30;;;;;;;8.25;3.28;;;11.40;99.90;;;;;;4232087;28;20054;-87
2022/10/17 00:11:31;;;;;;;35.10;4.03;;;12.50;99.90;;;;;;4231115;28;20051;-87
2022/10/17 00:13:33;;;;;;;9.52;2.63;;;12.30;99.90;;;;;;4231687;28;20052;-87
2022/10/17 00:15:36;;;;;;;7.90;2.30;;;12.60;99.90;;;;;;4232911;28;20527;-87
2022/10/17 00:17:40;;;;;;;5.10;2.33;;;12.50;99.90;;;;;;4233161;28;20032;-87
2022/10/17 00:19:41;;;;;;;12.93;2.58;;;12.60;99.90;;;;;;4232860;28;20047;-86
2022/10/17 00:21:42;;;;;;;8.55;2.78;;;12.50;99.90;;;;;;4232386;28;20512;-86
2022/10/17 00:23:43;;;;;;;10.68;2.33;;;12.50;99.90;;;;;;4215481;28;20119;-88
2022/10/17 00:25:44;;;;;;;7.93;2.28;;;12.50;99.90;;;;;;4233213;28;20035;-87
2022/10/17 00:27:45;;;;;;;7.22;1.98;;;12.60;99.90;;;;;;4215830;28;20067;-86
2022/10/17 00:29:50;;;;;;;6.78;2.17;;;12.50;99.90;;;;;;4233416;28;20189;-86
2022/10/17 00:31:54;;;;;;;5.57;2.70;;;12.50;99.90;;;;;;4215647;28;20054;-86
2022/10/17 00:33:55;;;;;;;8.40;2.20;;;12.60;99.90;;;;;;4232964;28;20074;-87
2022/10/17 00:36:17;;;;;;;10.55;2.20;;;12.50;99.90;;;;;;4214865;28;20044;-87
2022/10/17 00:38:18;;;;;;;13.55;2.30;;;12.50;99.90;;;;;;4232402;28;20516;-87
2022/10/17 00:40:19;;;;;;;14.07;3.42;;;12.60;99.90;;;;;;4249311;28;20050;-87
2022/10/17 00:42:20;;;;;;;13.48;3.53;;;12.50;99.90;;;;;;4202766;28;20048;-86
2022/10/17 00:44:30;;;;;;;9.27;2.30;;;12.60;99.90;;;;;;4216813;28;20425;-87
2022/10/17 00:46:37;;;;;;;7.05;2.38;;;12.60;99.90;;;;;;4198752;28;20041;-86
2022/10/17 00:48:38;;;;;;;10.45;2.92;;;12.60;99.90;;;;;;4219005;28;20055;-87
2022/10/17 00:50:43;;;;;;;11.32;2.63;;;12.60;99.90;;;;;;4219601;28;20498;-87
2022/10/17 00:52:46;;;;;;;6.22;2.22;;;12.50;99.90;;;;;;4201275;28;20044;-87
2022/10/17 00:54:54;;;;;;;7.70;2.20;;;12.50;99.90;;;;;;4220438;28;20439;-87
2022/10/17 00:56:56;;;;;;;8.95;2.22;;;12.60;99.90;;;;;;4202136;28;20055;-86
2022/10/17 00:58:57;;;;;;;10.23;2.42;;;12.50;99.90;;;;;;4201828;28;20428;-87
2022/10/17 01:00:58;;;;;;;11.07;2.95;;;12.40;99.90;;;;;;4218974;28;20044;-87
2022/10/17 01:03:00;;;;;;;9.32;2.75;;;12.40;99.90;;;;;;4218534;28;20533;-87
2022/10/17 01:05:01;;;;;;;10.68;2.90;;;12.40;99.90;;;;;;4218823;28;20065;-87
2022/10/17 01:07:02;;;;;;;12.68;2.63;;;12.50;99.90;;;;;;4201741;28;20056;-87
2022/10/17 01:09:04;;;;;;;11.02;2.42;;;12.80;99.90;;;;;;4217618;28;20047;-87
2022/10/17 01:11:33;;;;;;;5.43;2.30;;;12.40;99.90;;;;;;4217398;28;20101;-86
2022/10/17 01:13:55;;;;;;;7.45;2.30;;;12.30;99.90;;;;;;4191133;28;20491;-87
2022/10/17 01:16:40;;;;;;;9.05;2.55;;;12.40;99.90;;;;;;4216558;28;20055;-87
2022/10/17 01:19:05;;;;;;;8.48;3.03;;;12.40;99.90;;;;;;4184993;28;20076;-87
2022/10/17 01:21:30;;;;;;;8.00;2.92;;;12.40;99.90;;;;;;4215964;28;20040;-87
2022/10/17 01:24:09;;;;;;;13.38;2.28;;;12.40;99.90;;;;;;4217687;28;20131;-87
2022/10/17 01:26:37;;;;;;;6.38;2.50;;;12.40;99.90;;;;;;4199700;28;20502;-87
2022/10/17 01:28:59;;;;;;;5.90;2.78;;;12.40;99.90;;;;;;4215991;28;20055;-87
2022/10/17 01:31:14;;;;;;;10.45;2.63;;;12.40;99.90;;;;;;4218951;28;20044;-87
2022/10/17 01:33:35;;;;;;;7.68;2.42;;;12.40;99.90;;;;;;4220244;28;20044;-88
2022/10/17 01:35:53;;;;;;;5.57;2.33;;;12.40;99.90;;;;;;4219098;28;20505;-87
2022/10/17 01:38:03;;;;;;;9.10;2.65;;;12.40;99.90;;;;;;4217539;28;20040;-87
2022/10/17 01:40:20;;;;;;;9.82;2.65;;;12.50;99.90;;;;;;4218350;28;20092;-87
2022/10/17 01:42:46;;;;;;;7.47;2.35;;;12.50;99.90;;;;;;4218251;28;20062;-87
2022/10/17 01:44:58;;;;;;;8.32;2.30;;;12.50;99.90;;;;;;4219448;28;20387;-87
2022/10/17 01:47:09;;;;;;;9.60;2.55;;;12.50;99.90;;;;;;4200552;28;20479;-87
2022/10/17 01:49:15;;;;;;;8.85;2.50;;;12.60;99.90;;;;;;4216781;28;20044;-87
2022/10/17 01:51:25;;;;;;;8.40;2.75;;;12.60;99.90;;;;;;4217635;28;20048;-87
2022/10/17 01:53:40;;;;;;;8.00;3.00;;;12.60;99.90;;;;;;4217528;28;20490;-87
2022/10/17 01:55:44;;;;;;;8.73;2.83;;;12.60;99.90;;;;;;4217362;28;20048;-87
2022/10/17 01:57:55;;;;;;;7.25;3.55;;;12.60;99.90;;;;;;4216937;28;20052;-88
2022/10/17 01:59:56;;;;;;;11.50;3.45;;;12.70;99.90;;;;;;4199147;28;20052;-87
2022/10/17 02:01:59;;;;;;;11.48;2.90;;;12.60;99.90;;;;;;4217214;28;20072;-88
2022/10/17 02:04:02;;;;;;;7.82;2.83;;;12.70;99.90;;;;;;4199787;28;20079;-88
2022/10/17 02:06:04;;;;;;;13.70;3.55;;;12.70;99.90;;;;;;4217188;28;20052;-88
2022/10/17 02:08:06;;;;;;;4.53;2.33;;;12.70;99.90;;;;;;4217584;28;20516;-88
2022/10/17 02:10:16;;;;;;;4.82;2.72;;;12.70;99.90;;;;;;4217256;28;20473;-88
2022/10/17 02:12:25;;;;;;;12.10;3.17;;;12.70;99.90;;;;;;4217141;28;20461;-88
2022/10/17 02:14:26;;;;;;;;;;;12.70;99.90;;;;;;4217154;28;20056;-88
2022/10/17 02:16:53;;;;;;;10.98;3.20;;;12.70;99.90;;;;;;4198676;28;19974;-88
2022/10/17 02:19:15;;;;;;;5.28;2.78;;;12.70;99.90;;;;;;4216543;28;20055;-88
2022/10/17 02:21:47;;;;;;;7.90;3.15;;;12.80;99.90;;;;;;4215402;28;20040;-87
2022/10/17 02:23:59;;;;;;;9.50;2.95;;;12.70;99.90;;;;;;4197863;28;20519;-87
2022/10/17 02:26:10;;;;;;;12.55;2.65;;;12.70;99.90;;;;;;4216895;28;20425;-87
2022/10/17 02:28:19;;;;;;;9.40;3.38;;;12.80;99.90;;;;;;4216266;28;20055;-86
2022/10/17 02:30:26;;;;;;;7.43;2.95;;;12.80;99.90;;;;;;4217288;28;20052;-86
2022/10/17 02:33:05;;;;;;;5.32;2.97;;;12.70;99.90;;;;;;4198994;28;20044;-87
2022/10/17 02:35:10;;;;;;;6.18;2.95;;;12.70;99.90;;;;;;4217291;28;20498;-87
2022/10/17 02:37:16;;;;;;;13.32;4.13;;;12.70;99.90;;;;;;4216905;28;20046;-87
2022/10/17 02:39:21;;;;;;;6.43;3.33;;;12.70;99.90;;;;;;4215514;28;20040;-87
2022/10/17 02:41:23;;;;;;;12.45;3.90;;;12.70;99.90;;;;;;4220102;28;20065;-86
2022/10/17 02:43:24;;;;;;;7.82;3.10;;;12.80;99.90;;;;;;4232766;28;20409;-86
2022/10/17 02:45:28;;;;;;;6.95;3.80;;;12.80;99.90;;;;;;4215644;28;20066;-87
2022/10/17 02:47:44;;;;;;;8.93;3.65;;;12.80;99.90;;;;;;4232723;28;20542;-87
2022/10/17 02:49:50;;;;;;;8.68;3.78;;;12.80;99.90;;;;;;4231670;28;20058;-87
2022/10/17 02:52:07;;;;;;;9.00;4.22;;;12.80;99.90;;;;;;4230850;28;20050;-87
2022/10/17 02:54:43;;;;;;;6.22;4.20;;;12.80;99.90;;;;;;4231929;28;20044;-87
2022/10/17 02:56:54;;;;;;;10.43;4.50;;;12.80;99.90;;;;;;4191960;28;20465;-86
2022/10/17 02:58:58;;;;;;;9.82;3.95;;;12.80;99.90;;;;;;4231728;28;20481;-86
2022/10/17 03:01:00;;;;;;;7.63;3.90;;;12.80;99.90;;;;;;4231842;28;20101;-87
2022/10/17 03:03:16;;;;;;;6.47;3.75;;;12.80;99.90;;;;;;4232643;28;20048;-86
2022/10/17 03:05:22;;;;;;;10.10;4.38;;;12.80;99.90;;;;;;4233223;28;20047;-87
2022/10/17 03:07:23;;;;;;;9.52;4.32;;;12.80;99.90;;;;;;4233096;28;20058;-87
2022/10/17 03:09:24;;;;;;;7.60;4.22;;;12.80;99.90;;;;;;4231501;28;20040;-88
2022/10/17 03:11:25;;;;;;;10.32;4.30;;;12.80;99.90;;;;;;4224818;28;20391;-87
2022/10/17 03:13:26;;;;;;;10.52;5.00;;;12.80;99.90;;;;;;4216129;28;20063;-86
2022/10/17 03:15:27;;;;;;;9.50;4.70;;;12.70;99.90;;;;;;4217057;28;20510;-87
2022/10/17 03:17:29;;;;;;;13.90;4.95;;;12.70;99.90;;;;;;4216732;28;20052;-87
2022/10/17 03:19:30;;;;;;;10.63;5.15;;;12.70;99.90;;;;;;4200293;28;20048;-86
2022/10/17 03:21:31;;;;;;;9.02;5.18;;;12.70;99.90;;;;;;4217124;28;20454;-86
2022/10/17 03:23:32;;;;;;;13.25;5.10;;;12.70;99.90;;;;;;4218836;28;20560;-86
2022/10/17 03:25:33;;;;;;;8.68;4.97;;;12.70;99.90;;;;;;4219199;28;20048;-86
2022/10/17 03:27:35;;;;;;;11.50;6.25;;;12.70;99.90;;;;;;4232878;28;20051;-86
2022/10/17 03:29:36;;;;;;;9.27;5.70;;;12.80;99.90;;;;;;4231011;28;20072;-86
2022/10/17 03:31:40;;;;;;;9.73;5.15;;;12.70;99.90;;;;;;4218476;28;20057;-85
2022/10/17 03:33:41;;;;;;;10.13;5.43;;;12.70;99.90;;;;;;4246034;28;20095;-86
2022/10/17 03:35:41;;;;;;;13.10;6.38;;;12.80;99.90;;;;;;4245662;28;20103;-85
2022/10/17 03:37:43;;;;;;;19.63;6.32;;;12.80;99.90;;;;;;4231337;28;20047;-86
2022/10/17 03:39:45;;;;;;;10.63;5.32;;;12.80;99.90;;;;;;4232329;28;20091;-86
2022/10/17 03:41:46;;;;;;;8.77;5.15;;;12.70;99.90;;;;;;4206779;28;20048;-87
2022/10/17 03:43:46;;;;;;;10.32;6.60;;;12.70;99.90;;;;;;4197319;28;20146;-86
2022/10/17 03:45:48;;;;;;;8.65;5.07;;;12.80;99.90;;;;;;4215483;28;20119;-86
2022/10/17 03:47:49;;;;;;;9.07;6.03;;;12.80;99.90;;;;;;4215061;28;20109;-87
2022/10/17 03:49:52;;;;;;;10.25;5.57;;;12.80;99.90;;;;;;4231475;28;20130;-87
2022/10/17 03:51:54;;;;;;;10.32;5.90;;;12.80;99.90;;;;;;4231002;28;20140;-87
2022/10/17 03:53:54;;;;;;;11.82;5.68;;;12.90;99.90;;;;;;4232824;28;20071;-87
2022/10/17 03:55:56;;;;;;;11.60;5.53;;;12.90;99.90;;;;;;4232628;28;20454;-87
2022/10/17 03:57:56;;;;;;;8.27;5.35;;;12.90;99.90;;;;;;4231990;28;20473;-87
2022/10/17 03:59:57;;;;;;;14.32;5.95;;;12.90;99.90;;;;;;4231121;28;20046;-87
2022/10/17 04:01:58;;;;;;;11.07;5.25;;;13.00;99.90;;;;;;4231763;28;20488;-87
2022/10/17 04:03:59;;;;;;;8.05;4.75;;;13.00;99.90;;;;;;4214121;28;20047;-87
2022/10/17 04:06:01;;;;;;;8.10;5.10;;;13.00;99.90;;;;;;4232281;28;20134;-87
2022/10/17 04:08:02;;;;;;;11.02;4.95;;;13.10;99.90;;;;;;4231195;28;20127;-87
2022/10/17 04:10:03;;;;;;;13.32;5.10;;;13.10;99.90;;;;;;4230285;28;20137;-87
2022/10/17 04:12:04;;;;;;;11.85;5.65;;;13.10;99.90;;;;;;4231782;28;20065;-87
2022/10/17 04:14:05;;;;;;;9.00;4.88;;;13.10;99.90;;;;;;4230139;28;20130;-87
2022/10/17 04:16:10;;;;;;;9.32;4.53;;;13.00;99.90;;;;;;4231608;28;20044;-86
2022/10/17 04:18:11;;;;;;;13.02;5.47;;;13.10;99.90;;;;;;4213720;28;20086;-87
2022/10/17 04:20:12;;;;;;;9.75;4.97;;;13.00;99.90;;;;;;4230524;28;20051;-86
2022/10/17 04:22:13;;;;;;;8.77;4.85;;;13.00;99.90;;;;;;4231261;28;20052;-86
2022/10/17 04:24:14;;;;;;;11.40;4.85;;;13.00;99.90;;;;;;4230799;28;20044;-86
2022/10/17 04:26:16;;;;;;;10.60;5.50;;;13.00;99.90;;;;;;4230495;28;20054;-87
2022/10/17 04:28:18;;;;;;;8.80;4.60;;;13.10;99.90;;;;;;4231219;28;20047;-87
2022/10/17 04:30:18;;;;;;;9.45;4.53;;;13.00;99.90;;;;;;4231956;28;20469;-87
2022/10/17 04:32:19;;;;;;;8.40;4.53;;;13.00;99.90;;;;;;4230766;28;20084;-87
2022/10/17 04:34:20;;;;;;;10.90;4.82;;;13.10;99.90;;;;;;4231400;28;20104;-87
2022/10/17 04:36:22;;;;;;;8.50;4.55;;;13.10;99.90;;;;;;4213600;28;20076;-86
2022/10/17 04:38:25;;;;;;;6.80;4.65;;;13.10;99.90;;;;;;4230409;28;20056;-86
2022/10/17 04:40:25;;;;;;;6.90;5.30;;;13.10;99.90;;;;;;4231628;28;20040;-87
2022/10/17 04:42:28;;;;;;;9.07;5.28;;;13.10;99.90;;;;;;4216858;28;20610;-86
2022/10/17 04:44:29;;;;;;;9.10;5.25;;;13.10;99.90;;;;;;4214653;28;20505;-86
2022/10/17 04:46:33;;;;;;;9.13;4.90;;;13.10;99.90;;;;;;4214161;28;20048;-87
2022/10/17 04:48:36;;;;;;;7.53;5.20;;;13.10;99.90;;;;;;4213257;28;20110;-87
2022/10/17 04:50:37;;;;;;;6.50;4.60;;;13.10;99.90;;;;;;4197274;28;20055;-87
2022/10/17 04:52:38;;;;;;;7.95;5.20;;;13.10;99.90;;;;;;4213511;28;20508;-87
2022/10/17 04:54:38;;;;;;;10.95;6.05;;;13.10;99.90;;;;;;4213827;28;20127;-87
2022/10/17 04:56:40;;;;;;;8.88;5.35;;;13.10;99.90;;;;;;4213400;28;20536;-87
2022/10/17 04:58:43;;;;;;;9.57;5.45;;;13.10;99.90;;;;;;4197121;28;20128;-87
2022/10/17 05:00:44;;;;;;;13.45;5.47;;;13.00;99.90;;;;;;4212982;28;20056;-87
2022/10/17 05:02:46;;;;;;;8.85;5.63;;;13.10;99.90;;;;;;4213817;28;20067;-87
2022/10/17 05:04:47;;;;;;;8.10;5.85;;;13.10;99.90;;;;;;4196835;28;20056;-87
2022/10/17 05:06:48;;;;;;;13.90;5.80;;;13.10;99.90;;;;;;4196990;28;20036;-86
2022/10/17 05:08:49;;;;;;;11.98;5.88;;;13.10;99.90;;;;;;4213594;28;20048;-86
2022/10/17 05:10:50;;;;;;;10.35;6.18;;;13.10;99.90;;;;;;4196460;28;20044;-87
2022/10/17 05:12:51;;;;;;;13.57;6.60;;;13.10;99.90;;;;;;4213516;28;20075;-86
2022/10/17 05:14:52;;;;;;;13.40;6.30;;;13.10;99.90;;;;;;4215565;28;20052;-86
2022/10/17 05:16:52;;;;;;;11.02;6.05;;;13.10;99.90;;;;;;4200537;28;20530;-87
2022/10/17 05:18:56;;;;;;;11.20;5.95;;;13.10;99.90;;;;;;4212915;28;20044;-86
2022/10/17 05:20:57;;;;;;;11.80;6.03;;;13.10;99.90;;;;;;4215030;28;20079;-87
2022/10/17 05:22:58;;;;;;;12.77;6.32;;;13.20;99.90;;;;;;4214899;28;20043;-87
2022/10/17 05:24:59;;;;;;;11.52;6.10;;;13.20;99.90;;;;;;4196370;28;20052;-87
2022/10/17 05:27:00;;;;;;;11.40;6.15;;;13.20;99.90;;;;;;4214037;28;20091;-87
2022/10/17 05:29:02;;;;;;;13.27;7.13;;;13.20;99.90;;;;;;4214251;28;20036;-87
2022/10/17 05:31:07;;;;;;;12.05;6.75;;;13.20;99.90;;;;;;4213982;28;20510;-87
2022/10/17 05:33:09;;;;;;;10.98;6.82;;;13.20;99.90;;;;;;4213558;28;20098;-88
2022/10/17 05:35:09;;;;;;;11.82;6.40;;;13.20;99.90;;;;;;4214707;28;20067;-87
2022/10/17 05:37:10;;;;;;;11.50;6.57;;;13.20;99.90;;;;;;4216183;28;20055;-87
2022/10/17 05:39:13;;;;;;;9.23;6.03;;;13.20;99.90;;;;;;4215935;28;20043;-87
2022/10/17 05:41:15;;;;;;;11.93;6.88;;;13.20;99.90;;;;;;4202340;28;20036;-86
2022/10/17 05:43:16;;;;;;;8.43;5.93;;;13.20;99.90;;;;;;4232815;28;20055;-87
2022/10/17 05:45:16;;;;;;;14.85;7.18;;;13.20;99.90;;;;;;4232841;28;20063;-87
2022/10/17 05:47:18;;;;;;;10.48;7.00;;;13.20;99.90;;;;;;4233301;28;20048;-87
2022/10/17 05:49:21;;;;;;;10.50;6.78;;;13.20;99.90;;;;;;4232501;28;20047;-87
2022/10/17 05:51:22;;;;;;;12.27;6.57;;;13.20;99.90;;;;;;4215593;28;20052;-87
2022/10/17 05:53:22;;;;;;;11.57;7.30;;;13.20;99.90;;;;;;4233651;28;20450;-87
2022/10/17 05:55:23;;;;;;;14.10;7.60;;;13.20;99.90;;;;;;4227513;28;20070;-86
2022/10/17 05:57:25;;;;;;;12.75;7.88;;;13.20;99.90;;;;;;4234175;28;20049;-85
2022/10/17 05:59:28;;;;;;;14.80;8.10;;;13.30;99.90;;;;;;4234928;28;20083;-87
2022/10/17 06:01:30;;;;;;;14.02;7.28;;;13.30;99.90;;;;;;4233438;28;20047;-86
2022/10/17 06:03:31;;;;;;;16.67;8.48;;;13.30;99.90;;;;;;4234565;28;20047;-86
2022/10/17 06:05:34;;;;;;;10.15;6.95;;;13.30;99.90;;;;;;4234159;28;20048;-86
2022/10/17 06:07:35;;;;;;;11.15;7.55;;;13.30;99.90;;;;;;4233186;28;20051;-86
2022/10/17 06:09:35;;;;;;;13.95;7.60;;;13.30;99.90;;;;;;4234082;28;20390;-86
2022/10/17 06:11:36;;;;;;;13.80;7.93;;;13.30;99.90;;;;;;4233971;27;20047;-86
2022/10/17 06:13:38;;;;;;;11.98;7.30;;;13.30;99.90;;;;;;4223025;28;20056;-86
2022/10/17 06:15:39;;;;;;;14.07;7.78;;;13.30;99.90;;;;;;4215994;28;20083;-86
2022/10/17 06:17:40;;;;;;;16.52;7.30;;;13.30;99.90;;;;;;4215590;28;20044;-86
2022/10/17 06:19:40;;;;;;;15.07;7.43;;;13.30;99.90;;;;;;4216829;28;20463;-86
2022/10/17 06:21:43;;;;;;;16.65;8.07;;;13.40;99.90;;;;;;4216929;28;20063;-86
2022/10/17 06:23:44;;;;;;;13.68;8.35;;;13.40;99.90;;;;;;4198680;28;20055;-86
2022/10/17 06:25:45;;;;;;;18.65;8.20;;;13.40;99.90;;;;;;4217422;28;20401;-86
2022/10/17 06:27:45;;;;;;;16.42;7.68;;;13.40;99.90;;;;;;4217526;28;20456;-86
2022/10/17 06:29:47;;;;;;;18.50;8.27;;;13.50;99.90;;;;;;4199023;28;20040;-86
2022/10/17 06:31:48;;;;;;;14.38;7.72;;;13.50;99.90;;;;;;4220686;28;20043;-86
2022/10/17 06:33:48;;;;;;;15.95;7.70;;;13.50;99.90;;;;;;4233338;28;20054;-86
2022/10/17 06:35:53;;;;;;;15.05;7.43;;;13.60;99.90;;;;;;4233038;28;20425;-86
2022/10/17 06:37:54;;;;;;;14.02;8.00;;;13.60;99.90;;;;;;4208834;28;20056;-86
2022/10/17 06:39:55;;;;;;;14.32;8.02;;;13.60;99.90;;;;;;4217415;28;20105;-87
2022/10/17 06:41:56;;;;;;;17.45;8.00;;;13.70;99.90;;;;;;4217733;28;20069;-87
2022/10/17 06:43:57;;;;;;;16.75;7.80;;;13.70;99.90;;;;;;4218127;28;20040;-86
2022/10/17 06:45:58;;;;;;;16.00;8.20;;;13.70;99.90;;;;;;4201447;28;20118;-87
2022/10/17 06:48:00;;;;;;;14.80;7.88;;;13.70;99.90;;;;;;4217719;28;20131;-87
2022/10/17 06:50:04;;;;;;;15.75;8.40;;;13.80;99.90;;;;;;4227249;28;20051;-88
2022/10/17 06:52:05;;;;;;;15.43;7.97;;;13.80;99.90;;;;;;4235210;28;20566;-88
2022/10/17 06:54:06;;;;;;;23.02;7.97;;;13.90;99.90;;;;;;4235991;28;20043;-88
2022/10/17 06:56:08;;;;;;;14.32;8.73;;;13.90;99.90;;;;;;4234573;28;20131;-89
2022/10/17 06:58:09;;;;;;;17.30;8.02;;;13.90;99.90;;;;;;4218001;28;20498;-89
2022/10/17 07:00:10;;;;;;;17.85;8.73;;;13.90;99.90;;;;;;4217295;28;20048;-88
2022/10/17 07:02:11;;;;;;;14.73;8.45;;;14.00;99.90;;;;;;4230751;28;20046;-88
2022/10/17 07:04:12;;;;;;;18.10;8.93;;;14.00;99.90;;;;;;4217875;28;20044;-88
2022/10/17 07:06:13;;;;;;;14.65;7.78;;;14.00;99.90;;;;;;4234345;28;20055;-88
2022/10/17 07:08:13;;;;;;;14.85;7.82;;;14.10;99.90;;;;;;4219576;28;20401;-88
2022/10/17 07:10:14;;;;;;;14.05;7.65;;;14.10;99.90;;;;;;4217515;28;20052;-88
2022/10/17 07:12:15;;;;;;;13.63;7.95;;;14.10;99.90;;;;;;4216794;28;20109;-88
2022/10/17 07:14:16;;;;;;;15.05;7.65;;;14.10;99.90;;;;;;4214801;28;20445;-89
2022/10/17 07:16:17;;;;;;;19.20;8.90;;;14.20;99.90;;;;;;4218880;28;20047;-87
2022/10/17 07:18:18;;;;;;;15.68;8.35;;;14.20;99.90;;;;;;4230811;28;20401;-87
2022/10/17 07:20:18;;;;;;;15.65;8.73;;;14.20;99.90;;;;;;4221353;28;20122;-87
2022/10/17 07:22:19;;;;;;;14.57;8.05;;;14.30;99.90;;;;;;4218416;28;20044;-87
2022/10/17 07:24:20;;;;;;;15.75;7.80;;;14.30;99.90;;;;;;4229210;28;20489;-87
2022/10/17 07:26:21;;;;;;;13.60;7.93;;;14.40;99.90;;;;;;4218562;28;20043;-87
2022/10/17 07:28:22;;;;;;;18.20;8.32;;;14.40;99.90;;;;;;4232564;28;20127;-87
2022/10/17 07:30:23;;;;;;;13.52;7.60;;;14.50;99.90;;;;;;4232717;28;20134;-86
2022/10/17 07:32:23;;;;;;;13.15;7.28;;;14.50;99.90;;;;;;4231467;28;20570;-86
2022/10/17 07:34:29;;;;;;;14.68;7.10;;;14.60;99.90;;;;;;4232763;28;20397;-86
2022/10/17 07:36:30;;;;;;;12.90;7.60;;;14.70;99.90;;;;;;4231341;28;20646;-87
2022/10/17 07:38:31;;;;;;;13.88;7.50;;;14.80;99.90;;;;;;4214956;28;20056;-88
2022/10/17 07:40:32;;;;;;;17.98;7.85;;;14.90;99.90;;;;;;4232940;28;20130;-88
2022/10/17 07:42:35;;;;;;;11.85;7.55;;;15.00;99.90;;;;;;4231957;28;20474;-88
2022/10/17 07:44:36;;;;;;;17.25;7.15;;;15.10;99.90;;;;;;4232533;28;20551;-88
2022/10/17 07:46:37;;;;;;;12.35;6.80;;;15.10;99.90;;;;;;4231970;28;20048;-88
2022/10/17 07:48:38;;;;;;;14.82;6.93;;;15.20;99.90;;;;;;4232571;28;20131;-88
2022/10/17 07:50:40;;;;;;;32.20;7.43;;;15.30;99.90;;;;;;4232218;28;20139;-88
2022/10/17 07:52:42;;;;;;;15.82;7.45;;;15.30;99.90;;;;;;4232120;28;20043;-88
2022/10/17 07:54:42;;;;;;;9.93;6.45;;;15.40;99.90;;;;;;4231321;28;20450;-88
2022/10/17 07:56:49;;;;;;;12.88;7.43;;;15.40;99.90;;;;;;4232830;28;20043;-87
2022/10/17 07:58:51;;;;;;;9.82;6.45;;;15.40;99.90;;;;;;4231581;28;20054;-88
2022/10/17 08:00:52;;;;;;;11.35;6.25;;;15.50;99.90;;;;;;4233088;28;20047;-89
2022/10/17 08:02:53;;;;;;;12.38;6.82;;;15.50;99.90;;;;;;4233212;28;20065;-88
2022/10/17 08:04:53;;;;;;;15.60;6.43;;;15.60;99.90;;;;;;4232217;28;20040;-88
2022/10/17 08:06:54;;;;;;;11.27;5.95;;;15.70;99.90;;;;;;4233684;28;20050;-89
2022/10/17 08:08:56;;;;;;;10.40;6.57;;;15.80;99.90;;;;;;4232910;28;20044;-89
2022/10/17 08:11:03;;;;;;;14.07;6.40;;;15.90;99.90;;;;;;4232207;28;20051;-87
2022/10/17 08:13:04;;;;;;;10.68;5.70;;;16.20;99.90;;;;;;4219966;28;20052;-87
2022/10/17 08:15:05;;;;;;;11.43;5.80;;;16.50;99.90;;;;;;4228130;28;20459;-88
2022/10/17 08:17:06;;;;;;;13.82;6.32;;;16.70;99.90;;;;;;4231038;28;20043;-88
2022/10/17 08:19:10;;;;;;;12.07;6.18;;;16.70;99.90;;;;;;4232055;28;20533;-87
2022/10/17 08:21:12;;;;;;;13.25;5.72;;;16.70;99.90;;;;;;4214621;28;20048;-87
2022/10/17 08:23:14;;;;;;;15.20;6.78;;;16.70;99.90;;;;;;4230745;28;20043;-87
2022/10/17 08:25:14;;;;;;;9.43;4.75;;;16.60;99.90;;;;;;4232512;28;20044;-87
2022/10/17 08:27:20;;;;;;;13.63;5.88;;;16.70;99.90;;;;;;4231762;28;20571;-88
2022/10/17 08:29:20;;;;;;;10.80;5.20;;;16.70;99.90;;;;;;4231769;28;20065;-88
2022/10/17 08:31:21;;;;;;;13.35;6.00;;;16.70;99.90;;;;;;4228697;28;20047;-87
2022/10/17 08:33:23;;;;;;;10.18;5.35;;;16.70;99.90;;;;;;4233496;28;20043;-87
2022/10/17 08:35:24;;;;;;;15.95;5.25;;;16.70;99.90;;;;;;4232771;28;20043;-87
2022/10/17 08:37:25;;;;;;;16.65;5.50;;;16.70;99.90;;;;;;4230322;28;20043;-87
2022/10/17 08:39:26;;;;;;;9.43;4.95;;;16.70;99.90;;;;;;4232896;28;20524;-87
2022/10/17 08:41:32;;;;;;;8.00;4.78;;;16.70;99.90;;;;;;4226662;28;20108;-87
2022/10/17 08:44:09;;;;;;;12.57;5.50;;;16.80;99.90;;;;;;4215595;28;20051;-87
2022/10/17 08:46:11;;;;;;;10.60;4.75;;;16.80;99.90;;;;;;4215934;28;20044;-87
2022/10/17 08:48:18;;;;;;;7.63;5.05;;;16.80;99.90;;;;;;4215212;28;20044;-87
2022/10/17 08:50:42;;;;;;;12.50;4.63;;;16.90;99.90;;;;;;4215144;28;20126;-87
2022/10/17 08:52:53;;;;;;;11.25;5.55;;;16.90;99.90;;;;;;4216232;28;20059;-87
2022/10/17 08:54:54;;;;;;;8.95;5.43;;;16.90;99.90;;;;;;4231064;28;20105;-87
2022/10/17 08:56:56;;;;;;;8.95;4.80;;;17.00;99.90;;;;;;4232751;28;20439;-87
2022/10/17 08:58:58;;;;;;;14.23;6.00;;;17.00;99.90;;;;;;4233038;28;20402;-87
2022/10/17 09:01:08;;;;;;;9.82;5.65;;;17.10;99.90;;;;;;4235715;28;20047;-88
2022/10/17 09:03:26;;;;;;;12.60;5.18;;;17.10;99.90;;;;;;4233347;28;20059;-87
2022/10/17 09:05:38;;;;;;;10.13;5.20;;;17.10;99.90;;;;;;4215984;28;20044;-87
2022/10/17 09:07:48;;;;;;;13.27;4.80;;;17.10;99.90;;;;;;4218444;28;20052;-87
2022/10/17 09:10:26;;;;;;;8.75;5.40;;;17.20;99.90;;;;;;4234536;28;20126;-87
2022/10/17 09:12:50;;;;;;;9.23;5.10;;;17.10;99.90;;;;;;4236070;28;20051;-87
2022/10/17 09:14:59;;;;;;;9.15;4.90;;;17.10;99.90;;;;;;4234731;28;20309;-88
2022/10/17 09:17:14;;;;;;;12.07;5.38;;;17.10;99.90;;;;;;4234981;28;20035;-88
2022/10/17 09:19:34;;;;;;;10.35;4.80;;;17.10;99.90;;;;;;4235569;28;20040;-88
2022/10/17 09:21:57;;;;;;;9.23;4.43;;;17.10;99.90;;;;;;4217285;28;20047;-88
2022/10/17 09:24:03;;;;;;;10.18;4.80;;;17.20;99.90;;;;;;4218305;28;20413;-88
2022/10/17 09:26:04;;;;;;;8.43;4.32;;;17.20;99.90;;;;;;4227525;28;20040;-88
2022/10/17 09:28:22;;;;;;;9.20;4.82;;;17.20;99.90;;;;;;4233605;28;20100;-88
2022/10/17 09:30:38;;;;;;;7.05;4.70;;;17.20;99.90;;;;;;4234204;28;20412;-87
2022/10/17 09:32:41;;;;;;;8.23;4.55;;;17.30;99.90;;;;;;4233856;28;20047;-87
2022/10/17 09:34:42;;;;;;;7.53;4.25;;;17.30;99.90;;;;;;4216194;28;20371;-87
2022/10/17 09:36:43;;;;;;;6.97;4.35;;;17.30;99.90;;;;;;4233128;28;20051;-87
2022/10/17 09:38:48;;;;;;;7.57;4.40;;;17.20;99.90;;;;;;4232635;28;20092;-87
2022/10/17 09:40:59;;;;;;;11.30;4.35;;;17.40;99.90;;;;;;4233398;28;20081;-87
2022/10/17 09:43:03;;;;;;;9.40;4.10;;;17.40;99.90;;;;;;4217112;28;20044;-87
2022/10/17 09:45:18;;;;;;;10.65;4.43;;;17.40;99.90;;;;;;4215650;28;20052;-86
2022/10/17 09:47:28;;;;;;;10.93;4.15;;;17.70;99.90;;;;;;4216913;28;20067;-87
2022/10/17 09:49:34;;;;;;;9.20;4.50;;;17.40;99.90;;;;;;4216860;28;20405;-87
2022/10/17 09:51:37;;;;;;;8.75;5.22;;;17.40;99.90;;;;;;4216792;28;20070;-87
2022/10/17 09:53:43;;;;;;;9.65;5.03;;;17.40;99.90;;;;;;4215355;28;20116;-87
2022/10/17 09:55:48;;;;;;;8.07;5.05;;;17.40;99.90;;;;;;4215169;28;20571;-86
2022/10/17 09:57:51;;;;;;;7.95;4.97;;;17.40;99.90;;;;;;4216829;28;20127;-86
2022/10/17 10:00:01;;;;;;;8.73;5.18;;;17.40;99.90;;;;;;4216633;28;20040;-87
2022/10/17 10:02:09;;;;;;;;;;;17.40;99.90;;;;;;4217477;28;20094;-86
2022/10/17 10:04:14;;;;;;;8.85;4.72;;;17.40;99.90;;;;;;4216989;28;19923;-86
2022/10/17 10:06:18;;;;;;;7.97;5.25;;;17.40;99.90;;;;;;4216016;28;20048;-87
2022/10/17 10:08:27;;;;;;;8.57;5.05;;;17.30;99.90;;;;;;4216740;28;20532;-87
2022/10/17 10:10:28;;;;;;;;;;;17.20;99.90;;;;;;4218777;28;20058;-86
2022/10/17 10:12:38;;;;;;;10.77;5.40;;;17.20;99.90;;;;;;4217636;28;19923;-86
2022/10/17 10:14:39;;;;;;;8.35;5.95;;;17.20;99.90;;;;;;4215254;28;20528;-86
2022/10/17 10:16:44;;;;;;;9.75;5.97;;;17.10;99.90;;;;;;4215031;28;20589;-86
2022/10/17 10:18:46;;;;;;;12.77;5.40;;;17.10;99.90;;;;;;4223368;28;20497;-85
2022/10/17 10:21:03;;;;;;;10.05;6.28;;;17.10;99.90;;;;;;4227967;28;20846;-86
2022/10/17 10:23:13;;;;;;;14.75;6.13;;;17.00;99.90;;;;;;4228363;28;20120;-85
2022/10/17 10:25:16;;;;;;;14.52;5.93;;;17.00;99.90;;;;;;4227589;28;20039;-87
2022/10/17 10:27:18;;;;;;;11.82;6.25;;;16.90;99.90;;;;;;4228590;28;20057;-88
2022/10/17 10:29:55;;;;;;;8.85;6.32;;;16.90;99.90;;;;;;4207249;28;20040;-88
2022/10/17 10:32:20;;;;;;;11.95;5.95;;;16.90;99.90;;;;;;4222679;28;20059;-87
2022/10/17 10:34:28;;;;;;;11.57;6.28;;;16.80;99.90;;;;;;4226445;28;20032;-88
2022/10/17 10:36:48;;;;;;;10.68;6.35;;;16.90;99.90;;;;;;4228101;27;20884;-88
2022/10/17 10:38:55;;;;;;;12.70;6.22;;;16.80;99.90;;;;;;4225484;28;20190;-89
2022/10/17 10:41:11;;;;;;;13.65;6.25;;;16.80;99.90;;;;;;4227525;28;20085;-88
2022/10/17 10:43:22;;;;;;;10.60;6.78;;;16.80;99.90;;;;;;4233919;28;20040;-88
2022/10/17 10:45:28;;;;;;;10.88;7.10;;;16.80;99.90;;;;;;4225398;28;20048;-88
2022/10/17 10:47:30;;;;;;;11.10;6.72;;;16.70;99.90;;;;;;4221679;28;20046;-88